Airfield :







YOU CAN JOIN US ON...

 
LOGIN :

Register | Disclaimer

   EN    FR    IT 

 









Legend :    VFR   Marginal VFR   IFR   Intensive IFR   Very Intensive IFR
Visi :
Ceiling :
>= 8 km
>= 3000ft
5 to 8 km
1000 to 3000 ft
1500m to 5 km
500 to 1000 ft
800 to 1500m
200 to 500 ft
< 800m
< 200 ft
Symbols :   Thunderstorms  Fog  Heavy snow  Heavy precipitations  Wind > 20 kt







- Airport Elevation : 72 ft
- IATA code : YDF


CYDF - Deer Lake

CURRENT METAR :
  • 242100Z 24005KT 210V280 15SM BKN028 OVC072 09/07 A2969 RMK SC5AC3 SLP056

EXPIRED METARs :
  • 242012Z 24008KT 15SM FEW012 BKN032 OVC060 09/06 A2967 RMK SF2SC4SC2 SLP050
  • 242000Z 24008KT 15SM -RA FEW012 BKN031 OVC055 09/06 A2967 RMK SF2SC5SC1 SLP049
  • 241900Z 25009KT 12SM -RA FEW010 OVC028 09/06 A2965 RMK SF2SC6 SLP041

TAF TAF CYDF
Valid from the 24 at 20:00 until the 25 at 08:00 UTC


241938Z 2420/2508 25010KT P6SM -RA OVC030
TEMPO 2420/2506 4SM -RA BR OVC015 RMK NXT FCST BY 250200Z
CZQX FIR / North America



MET'MAP, your aeronautical weather chart ! - Copyright ORBIFLY December 2007 - Disclaimer

ORBIFLY MET'MAP TEAM :

Programming & Development : Alexandra Zaïnal
Concept & Development : Baudouin d'Aumeries
Co-Development & Prog : Marc-Olivier Méhu
Technical & hardware support : Manuel Goepfert

Contact : metmap@orbifly.com




SOURCES & CREDITS :

   NOAA